createdAt,value
2022-10-04T00:00:17.578Z,201.50
2022-10-04T00:01:17.693Z,164.90
2022-10-04T00:02:17.668Z,200.50
2022-10-04T00:03:17.583Z,204.30
2022-10-04T00:04:17.523Z,207.20
2022-10-04T00:05:17.509Z,203.00
2022-10-04T00:06:18.510Z,204.00
2022-10-04T00:07:17.506Z,207.40
2022-10-04T00:08:17.500Z,197.20
2022-10-04T00:09:17.488Z,199.00
2022-10-04T00:10:17.466Z,198.50
2022-10-04T00:11:17.489Z,204.90
2022-10-04T00:12:17.436Z,205.00
2022-10-04T00:13:17.447Z,202.40
2022-10-04T00:14:17.415Z,195.10
2022-10-04T00:15:17.424Z,197.60
2022-10-04T00:16:17.471Z,200.80
2022-10-04T00:17:17.398Z,202.20
2022-10-04T00:18:17.385Z,205.50
2022-10-04T00:19:17.363Z,203.00
2022-10-04T00:20:17.359Z,202.10
2022-10-04T00:21:17.344Z,197.50
2022-10-04T00:22:17.405Z,203.30
2022-10-04T00:23:17.366Z,201.90
2022-10-04T00:24:17.295Z,201.70
2022-10-04T00:25:17.298Z,198.90
2022-10-04T00:26:17.275Z,196.60
2022-10-04T00:27:17.308Z,202.30
2022-10-04T00:28:17.289Z,193.20
2022-10-04T00:29:17.258Z,189.20
2022-10-04T00:30:17.245Z,195.90
2022-10-04T00:31:17.253Z,195.00
2022-10-04T00:32:17.251Z,189.60
2022-10-04T00:33:17.191Z,189.50
2022-10-04T00:34:17.177Z,196.70
2022-10-04T00:35:17.175Z,195.50
2022-10-04T00:36:17.180Z,190.30
2022-10-04T00:37:17.196Z,187.40
2022-10-04T00:38:17.148Z,194.10
2022-10-04T00:39:17.138Z,191.80
2022-10-04T00:40:17.116Z,190.90
2022-10-04T00:41:17.121Z,196.40
2022-10-04T00:42:17.146Z,193.20
2022-10-04T00:43:17.119Z,189.90
2022-10-04T00:44:17.075Z,193.20
2022-10-04T00:45:17.061Z,188.30
2022-10-04T00:46:17.097Z,199.10
2022-10-04T00:47:17.096Z,194.50
2022-10-04T00:48:17.039Z,195.80
2022-10-04T00:49:17.023Z,194.30
2022-10-04T00:50:17.015Z,196.30
2022-10-04T00:51:17.001Z,189.80
2022-10-04T00:52:17.038Z,191.40
2022-10-04T00:53:16.975Z,194.00
2022-10-04T00:54:16.963Z,186.00
2022-10-04T00:55:16.957Z,195.00
2022-10-04T00:56:16.938Z,196.60
2022-10-04T00:57:16.976Z,207.50
2022-10-04T00:58:16.916Z,198.00
2022-10-04T00:59:16.900Z,206.00
2022-10-04T01:00:16.896Z,205.10
2022-10-04T01:01:16.957Z,208.40
2022-10-04T01:02:16.914Z,211.00
2022-10-04T01:03:16.848Z,211.20
2022-10-04T01:04:16.835Z,209.30
2022-10-04T01:05:16.829Z,206.20
2022-10-04T01:06:16.863Z,210.80
2022-10-04T01:07:16.825Z,211.70
2022-10-04T01:08:16.838Z,219.10
2022-10-04T01:09:16.805Z,213.50
2022-10-04T01:10:16.768Z,215.60
2022-10-04T01:11:16.824Z,215.20
2022-10-04T01:12:16.754Z,225.90
2022-10-04T01:13:16.746Z,223.10
2022-10-04T01:14:16.736Z,225.40
2022-10-04T01:15:16.718Z,225.70
2022-10-04T01:16:16.857Z,236.80
2022-10-04T01:17:16.691Z,242.00
2022-10-04T01:18:16.671Z,245.70
2022-10-04T01:19:16.680Z,247.90
2022-10-04T01:20:16.659Z,251.00
2022-10-04T01:21:16.697Z,246.80
2022-10-04T01:22:16.639Z,244.90
2022-10-04T01:23:16.644Z,238.00
2022-10-04T01:24:16.612Z,243.10
2022-10-04T01:25:16.623Z,249.40
2022-10-04T01:26:16.651Z,244.40
2022-10-04T01:27:16.577Z,251.20
2022-10-04T01:28:16.638Z,246.20
2022-10-04T01:29:16.553Z,249.00
2022-10-04T01:30:16.554Z,253.80
2022-10-04T01:31:16.628Z,253.60
2022-10-04T01:32:16.503Z,260.80
2022-10-04T01:33:16.504Z,261.00
2022-10-04T01:34:16.502Z,253.80
2022-10-04T01:35:16.483Z,253.30
2022-10-04T01:36:16.537Z,259.30
2022-10-04T01:37:16.483Z,261.50
2022-10-04T01:38:16.477Z,261.30
2022-10-04T01:39:16.455Z,262.30
2022-10-04T01:40:16.441Z,258.70
2022-10-04T01:41:16.479Z,251.00
2022-10-04T01:42:16.412Z,253.90
2022-10-04T01:43:16.398Z,241.80
2022-10-04T01:44:16.395Z,256.40
2022-10-04T01:45:16.357Z,257.60
2022-10-04T01:46:16.463Z,254.10
2022-10-04T01:47:16.371Z,248.30
2022-10-04T01:48:16.332Z,244.50
2022-10-04T01:49:16.335Z,249.70
2022-10-04T01:50:16.313Z,253.30
2022-10-04T01:51:16.355Z,248.70
2022-10-04T01:52:16.295Z,255.30
2022-10-04T01:53:16.289Z,245.00
2022-10-04T01:54:16.309Z,249.30
2022-10-04T01:55:16.253Z,249.50
2022-10-04T01:56:16.301Z,256.40
2022-10-04T01:57:16.241Z,249.10
2022-10-04T01:58:16.239Z,255.00
2022-10-04T01:59:16.217Z,252.40
2022-10-04T02:00:16.220Z,247.70
2022-10-04T02:01:16.288Z,249.80
2022-10-04T02:02:16.181Z,250.00
2022-10-04T02:03:16.155Z,251.60
2022-10-04T02:04:19.800Z,252.80
2022-10-04T02:05:17.129Z,244.30
2022-10-04T02:06:16.194Z,241.50
2022-10-04T02:07:16.137Z,245.60
2022-10-04T02:08:16.119Z,248.40
2022-10-04T02:09:16.096Z,246.00
2022-10-04T02:10:16.099Z,242.00
2022-10-04T02:11:16.133Z,238.90
2022-10-04T02:12:16.079Z,235.10
2022-10-04T02:13:16.056Z,230.20
2022-10-04T02:14:16.063Z,235.60
2022-10-04T02:15:16.018Z,240.70
2022-10-04T02:16:16.157Z,240.50
2022-10-04T02:17:16.015Z,240.40
2022-10-04T02:18:16.000Z,238.30
2022-10-04T02:19:15.996Z,238.40
2022-10-04T02:20:15.978Z,233.60
2022-10-04T02:21:16.012Z,236.90
2022-10-04T02:22:15.963Z,238.80
2022-10-04T02:23:15.936Z,238.60
2022-10-04T02:24:15.944Z,240.80
2022-10-04T02:25:15.919Z,240.50
2022-10-04T02:26:15.959Z,239.20
2022-10-04T02:27:15.891Z,236.50
2022-10-04T02:28:15.967Z,239.70
2022-10-04T02:29:15.882Z,237.90
2022-10-04T02:30:15.857Z,232.70
2022-10-04T02:31:15.908Z,240.10
2022-10-04T02:32:15.833Z,243.60
2022-10-04T02:33:15.815Z,238.50
2022-10-04T02:34:15.807Z,237.20
2022-10-04T02:35:15.795Z,242.40
2022-10-04T02:36:15.832Z,246.40
2022-10-04T02:37:15.780Z,247.30
2022-10-04T02:38:15.783Z,244.50
2022-10-04T02:39:15.782Z,244.10
2022-10-04T02:40:15.736Z,239.60
2022-10-04T02:41:15.782Z,255.20
2022-10-04T02:42:15.733Z,249.90
2022-10-04T02:43:15.700Z,249.30
2022-10-04T02:44:15.702Z,254.00
2022-10-04T02:45:15.683Z,256.90
2022-10-04T02:46:15.731Z,249.70
2022-10-04T02:47:15.664Z,248.00
2022-10-04T02:48:15.656Z,248.70
2022-10-04T02:49:15.634Z,251.80
2022-10-04T02:50:15.631Z,253.90
2022-10-04T02:51:15.657Z,247.20
2022-10-04T02:52:15.607Z,254.40
2022-10-04T02:53:15.590Z,248.60
2022-10-04T02:54:15.589Z,253.60
2022-10-04T02:55:15.591Z,258.40
2022-10-04T02:56:15.615Z,254.80
2022-10-04T02:57:15.551Z,261.20
2022-10-04T02:58:15.532Z,253.80
2022-10-04T02:59:15.525Z,257.30
2022-10-04T03:00:15.520Z,260.30
2022-10-04T03:01:15.614Z,252.80
2022-10-04T03:02:15.693Z,249.10
2022-10-04T03:03:15.484Z,251.80
2022-10-04T03:04:15.471Z,249.10
2022-10-04T03:05:15.446Z,242.90
2022-10-04T03:06:15.485Z,246.60
2022-10-04T03:07:15.430Z,241.10
2022-10-04T03:08:15.416Z,242.30
2022-10-04T03:09:15.415Z,240.90
2022-10-04T03:10:15.408Z,245.80
2022-10-04T03:11:15.425Z,249.40
2022-10-04T03:12:15.363Z,244.50
2022-10-04T03:13:15.370Z,242.50
2022-10-04T03:14:15.354Z,245.50
2022-10-04T03:15:15.336Z,245.50
2022-10-04T03:16:15.501Z,243.10
2022-10-04T03:17:15.317Z,248.40
2022-10-04T03:18:15.317Z,242.00
2022-10-04T03:19:15.294Z,254.10
2022-10-04T03:20:15.280Z,250.80
2022-10-04T03:21:15.308Z,253.10
2022-10-04T03:22:15.261Z,259.40
2022-10-04T03:23:15.244Z,241.80
2022-10-04T03:24:15.288Z,248.70
2022-10-04T03:25:15.222Z,255.30
2022-10-04T03:26:15.256Z,264.40
2022-10-04T03:27:15.205Z,257.70
2022-10-04T03:28:15.251Z,256.30
2022-10-04T03:29:15.173Z,254.00
2022-10-04T03:30:15.177Z,263.10
2022-10-04T03:31:15.285Z,267.20
2022-10-04T03:32:15.149Z,260.50
2022-10-04T03:33:15.137Z,256.00
2022-10-04T03:34:15.126Z,256.60
2022-10-04T03:35:15.110Z,256.60
2022-10-04T03:36:15.144Z,255.60
2022-10-04T03:37:15.072Z,254.40
2022-10-04T03:38:15.074Z,258.40
2022-10-04T03:39:15.062Z,256.80
2022-10-04T03:40:15.060Z,255.50
2022-10-04T03:41:15.087Z,257.20
2022-10-04T03:42:15.037Z,256.40
2022-10-04T03:43:15.017Z,253.50
2022-10-04T03:44:15.016Z,247.30
2022-10-04T03:45:14.992Z,245.60
2022-10-04T03:46:15.060Z,256.20
2022-10-04T03:47:14.975Z,244.60
2022-10-04T03:48:14.959Z,257.10
2022-10-04T03:49:14.935Z,263.60
2022-10-04T03:50:14.943Z,266.20
2022-10-04T03:51:14.964Z,275.10
2022-10-04T03:52:14.919Z,285.20
2022-10-04T03:53:14.908Z,287.30
2022-10-04T03:54:14.898Z,290.70
2022-10-04T03:55:14.885Z,299.60
2022-10-04T03:56:14.916Z,305.70
2022-10-04T03:57:14.859Z,300.20
2022-10-04T03:58:14.850Z,299.40
2022-10-04T03:59:14.831Z,301.20
2022-10-04T04:00:14.828Z,301.10
2022-10-04T04:01:14.916Z,297.00
2022-10-04T04:02:14.867Z,295.50
2022-10-04T04:03:14.787Z,296.80
2022-10-04T04:04:14.791Z,293.50
2022-10-04T04:05:14.765Z,295.70
2022-10-04T04:06:14.798Z,293.20
2022-10-04T04:07:14.747Z,293.10
2022-10-04T04:08:14.743Z,285.80
2022-10-04T04:09:15.725Z,292.10
2022-10-04T04:10:16.944Z,302.20
2022-10-04T04:11:14.743Z,307.80
2022-10-04T04:12:14.686Z,313.90
2022-10-04T04:13:14.671Z,311.60
2022-10-04T04:14:14.673Z,321.60
2022-10-04T04:15:14.650Z,315.70
2022-10-04T04:16:14.760Z,315.10
2022-10-04T04:17:14.644Z,300.30
2022-10-04T04:18:14.646Z,304.60
2022-10-04T04:19:14.617Z,303.90
2022-10-04T04:20:14.624Z,295.80
2022-10-04T04:21:14.636Z,309.20
2022-10-04T04:22:14.579Z,305.10
2022-10-04T04:23:14.576Z,308.50
2022-10-04T04:24:14.562Z,314.20
2022-10-04T04:25:14.559Z,306.60
2022-10-04T04:26:14.593Z,292.10
2022-10-04T04:27:14.516Z,297.50
2022-10-04T04:28:14.616Z,288.90
2022-10-04T04:29:14.492Z,297.70
2022-10-04T04:30:14.515Z,302.70
2022-10-04T04:31:14.605Z,311.30
2022-10-04T04:32:14.487Z,306.20
2022-10-04T04:33:18.953Z,309.90
2022-10-04T04:34:15.463Z,317.70
2022-10-04T04:35:14.441Z,317.20
2022-10-04T04:36:14.481Z,318.00
2022-10-04T04:37:14.431Z,322.20
2022-10-04T04:38:14.411Z,316.00
2022-10-04T04:39:14.409Z,320.50
2022-10-04T04:40:14.378Z,308.90
2022-10-04T04:41:14.429Z,308.40
2022-10-04T04:42:14.375Z,299.70
2022-10-04T04:43:14.359Z,307.20
2022-10-04T04:44:14.345Z,304.00
2022-10-04T04:45:14.320Z,302.00
2022-10-04T04:46:29.478Z,298.50
2022-10-04T04:47:18.176Z,306.80
2022-10-04T04:48:14.315Z,306.10
2022-10-04T04:49:14.280Z,304.10
2022-10-04T04:50:14.292Z,306.60
2022-10-04T04:51:14.291Z,313.10
2022-10-04T04:52:14.263Z,315.10
2022-10-04T04:53:14.238Z,305.80
2022-10-04T04:54:14.215Z,308.30
2022-10-04T04:55:14.248Z,303.00
2022-10-04T04:56:17.492Z,298.50
2022-10-04T04:57:14.165Z,300.10
2022-10-04T04:58:14.170Z,288.30
2022-10-04T04:59:14.173Z,293.60
2022-10-04T05:00:14.162Z,315.40
2022-10-04T05:01:14.240Z,320.10
2022-10-04T05:02:14.194Z,314.90
2022-10-04T05:03:14.118Z,316.40
2022-10-04T05:04:14.146Z,313.60
2022-10-04T05:05:14.083Z,317.70
2022-10-04T05:06:14.147Z,314.10
2022-10-04T05:07:14.075Z,320.60
2022-10-04T05:08:14.072Z,317.70
2022-10-04T05:09:14.070Z,312.80
2022-10-04T05:10:14.050Z,300.60
2022-10-04T05:11:14.079Z,301.00
2022-10-04T05:12:14.026Z,300.00
2022-10-04T05:13:14.021Z,305.40
2022-10-04T05:14:14.012Z,298.80
2022-10-04T05:15:15.331Z,291.90
2022-10-04T05:16:14.102Z,302.60
2022-10-04T05:17:13.958Z,305.50
2022-10-04T05:18:13.964Z,300.70
2022-10-04T05:19:13.952Z,296.20
2022-10-04T05:20:13.945Z,289.70
2022-10-04T05:21:13.924Z,301.00
2022-10-04T05:22:13.957Z,304.70
2022-10-04T05:23:13.908Z,307.50
2022-10-04T05:24:13.879Z,301.50
2022-10-04T05:25:13.881Z,305.80
2022-10-04T05:26:13.870Z,313.60
2022-10-04T05:27:13.886Z,315.70
2022-10-04T05:28:13.853Z,329.60
2022-10-04T05:29:13.826Z,323.00
2022-10-04T05:30:13.821Z,312.30
2022-10-04T05:31:13.836Z,312.80
2022-10-04T05:32:13.838Z,301.80
2022-10-04T05:33:13.776Z,286.60
2022-10-04T05:34:13.781Z,288.30
2022-10-04T05:35:13.763Z,283.90
2022-10-04T05:36:13.795Z,277.90
2022-10-04T05:37:13.776Z,280.60
2022-10-04T05:38:13.724Z,269.80
2022-10-04T05:39:13.699Z,289.50
2022-10-04T05:40:13.737Z,295.70
2022-10-04T05:41:13.695Z,291.40
2022-10-04T05:42:13.732Z,290.20
2022-10-04T05:43:13.666Z,306.50
2022-10-04T05:44:13.660Z,323.70
2022-10-04T05:45:13.643Z,322.30
2022-10-04T05:46:13.701Z,340.70
2022-10-04T05:47:13.670Z,336.80
2022-10-04T05:48:13.630Z,342.40
2022-10-04T05:49:18.890Z,325.00
2022-10-04T05:50:14.579Z,316.50
2022-10-04T05:51:13.577Z,280.50
2022-10-04T05:52:13.637Z,275.20
2022-10-04T05:53:13.562Z,255.70
2022-10-04T05:54:13.550Z,251.30
2022-10-04T05:55:13.555Z,240.30
2022-10-04T05:56:13.504Z,238.50
2022-10-04T05:57:13.601Z,225.70
2022-10-04T05:58:13.495Z,222.90
2022-10-04T05:59:13.478Z,238.70
2022-10-04T06:00:13.488Z,244.90
2022-10-04T06:01:13.527Z,252.20
2022-10-04T06:02:13.579Z,262.10
2022-10-04T06:03:13.440Z,272.20
2022-10-04T06:04:13.458Z,279.00
2022-10-04T06:05:13.418Z,282.40
2022-10-04T06:06:13.401Z,277.90
2022-10-04T06:07:13.429Z,270.80
2022-10-04T06:08:13.378Z,267.00
2022-10-04T06:09:13.395Z,233.60
2022-10-04T06:10:13.357Z,211.70
2022-10-04T06:11:13.362Z,199.90
2022-10-04T06:12:13.416Z,194.90
2022-10-04T06:13:13.455Z,192.30
2022-10-04T06:14:13.320Z,158.50
2022-10-04T06:15:13.308Z,91.30
2022-10-04T06:16:13.341Z,159.70
2022-10-04T06:17:13.307Z,139.80
2022-10-04T06:18:13.279Z,131.10
2022-10-04T06:19:13.262Z,104.50
2022-10-04T06:20:13.275Z,104.80
2022-10-04T06:21:13.243Z,149.50
2022-10-04T06:22:13.289Z,112.70
2022-10-04T06:23:13.239Z,123.20
2022-10-04T06:24:13.209Z,144.90
2022-10-04T06:25:13.197Z,172.20
2022-10-04T06:26:13.194Z,187.30
2022-10-04T06:27:13.209Z,84.40
2022-10-04T06:28:13.182Z,77.90
2022-10-04T06:29:13.146Z,190.40
2022-10-04T06:30:13.144Z,153.50
2022-10-04T06:31:13.179Z,206.30
2022-10-04T06:32:13.163Z,163.80
2022-10-04T06:33:13.105Z,232.90
2022-10-04T06:34:13.082Z,223.00
2022-10-04T06:35:13.089Z,166.00
2022-10-04T06:36:13.060Z,247.70
2022-10-04T06:37:13.107Z,225.80
2022-10-04T06:38:13.037Z,250.20
2022-10-04T06:39:13.047Z,181.00
2022-10-04T06:40:13.043Z,283.10
2022-10-04T06:41:13.006Z,264.30
2022-10-04T06:42:13.039Z,195.60
2022-10-04T06:43:12.986Z,302.40
2022-10-04T06:44:12.982Z,288.00
2022-10-04T06:45:12.966Z,84.30
2022-10-04T06:46:13.101Z,318.80
2022-10-04T06:47:12.984Z,335.50
2022-10-04T06:48:12.909Z,372.00
2022-10-04T06:49:12.931Z,387.70
2022-10-04T06:50:12.915Z,400.00
2022-10-04T06:51:12.925Z,81.80
2022-10-04T06:52:17.230Z,371.90
2022-10-04T06:53:12.890Z,323.00
2022-10-04T06:54:12.874Z,308.20
2022-10-04T06:55:12.832Z,289.10
2022-10-04T06:56:12.825Z,275.20
2022-10-04T06:57:12.880Z,334.90
2022-10-04T06:58:12.824Z,193.90
2022-10-04T06:59:12.810Z,205.60
2022-10-04T07:00:12.802Z,153.60
2022-10-04T07:01:12.835Z,117.10
2022-10-04T07:02:12.839Z,140.70
2022-10-04T07:03:12.763Z,96.20
2022-10-04T07:04:12.738Z,112.90
2022-10-04T07:05:12.744Z,109.50
2022-10-04T07:06:12.722Z,67.60
2022-10-04T07:07:12.755Z,41.80
2022-10-04T07:08:12.733Z,73.50
2022-10-04T07:09:12.715Z,81.00
2022-10-04T07:10:12.685Z,67.10
2022-10-04T07:11:12.681Z,60.40
2022-10-04T07:12:12.703Z,74.20
2022-10-04T07:13:12.679Z,69.60
2022-10-04T07:14:12.637Z,74.20
2022-10-04T07:15:12.636Z,53.90
2022-10-04T07:16:12.689Z,47.90
2022-10-04T07:17:12.635Z,95.10
2022-10-04T07:18:12.582Z,113.70
2022-10-04T07:19:12.586Z,109.30
2022-10-04T07:20:12.552Z,31.70
2022-10-04T07:21:12.577Z,72.40
2022-10-04T07:22:12.610Z,45.40
2022-10-04T07:23:12.551Z,61.80
2022-10-04T07:24:12.508Z,68.60
2022-10-04T07:25:12.511Z,47.60
2022-10-04T07:26:12.493Z,71.60
2022-10-04T07:27:12.516Z,45.90
2022-10-04T07:28:12.549Z,91.40
2022-10-04T07:29:12.473Z,81.60
2022-10-04T07:30:12.484Z,124.90
2022-10-04T07:31:12.482Z,35.60
2022-10-04T07:32:12.488Z,139.10
2022-10-04T07:33:12.422Z,99.30
2022-10-04T07:34:12.408Z,75.10
2022-10-04T07:35:12.422Z,68.50
2022-10-04T07:36:12.384Z,326.50
2022-10-04T07:37:12.426Z,60.70
2022-10-04T07:38:12.361Z,692.70
2022-10-04T07:39:12.354Z,48.70
2022-10-04T07:40:12.345Z,76.80
2022-10-04T07:41:12.327Z,60.80
2022-10-04T07:42:12.352Z,70.40
2022-10-04T07:43:12.302Z,71.60
2022-10-04T07:44:12.285Z,52.30
2022-10-04T07:45:12.290Z,62.30
2022-10-04T07:46:12.464Z,64.60
2022-10-04T07:47:12.271Z,138.10
2022-10-04T07:48:12.250Z,46.20
2022-10-04T07:49:12.257Z,148.20
2022-10-04T07:50:12.220Z,398.10
2022-10-04T07:51:12.254Z,395.50
2022-10-04T07:52:12.215Z,1999.90
2022-10-04T07:53:12.212Z,1999.90
2022-10-04T07:54:12.161Z,1999.90
2022-10-04T07:55:12.176Z,1999.90
2022-10-04T07:56:12.207Z,1999.90
2022-10-04T07:57:12.184Z,1999.90
2022-10-04T07:58:12.121Z,1999.90
2022-10-04T07:59:12.133Z,1999.90
2022-10-04T08:00:12.109Z,1999.90
2022-10-04T08:01:12.160Z,1999.90
2022-10-04T08:02:12.361Z,1999.90
2022-10-04T08:03:12.127Z,1999.90
2022-10-04T08:04:12.061Z,1999.90
2022-10-04T08:05:12.061Z,1999.90
2022-10-04T08:06:12.078Z,1999.90
2022-10-04T08:07:12.073Z,1999.90
2022-10-04T08:08:12.037Z,1999.90
2022-10-04T08:09:12.012Z,1999.90
2022-10-04T08:10:12.013Z,1999.90
2022-10-04T08:11:12.010Z,1999.90
2022-10-04T08:12:11.970Z,1999.90
2022-10-04T08:13:11.966Z,1999.90
2022-10-04T08:14:11.968Z,1999.90
2022-10-04T08:15:11.965Z,1999.90
2022-10-04T08:16:12.042Z,1999.90
2022-10-04T08:17:15.456Z,1999.90
2022-10-04T08:18:11.923Z,1999.90
2022-10-04T08:19:11.880Z,1999.90
2022-10-04T08:20:11.862Z,1999.90
2022-10-04T08:21:11.864Z,1999.90
2022-10-04T08:22:11.881Z,1999.90
2022-10-04T08:23:11.841Z,1999.90
2022-10-04T08:24:11.846Z,1999.90
2022-10-04T08:25:11.836Z,1999.90
2022-10-04T08:26:11.818Z,1999.90
2022-10-04T08:27:11.841Z,1999.90
2022-10-04T08:28:11.848Z,1999.90
2022-10-04T08:29:11.781Z,1999.90
2022-10-04T08:30:11.804Z,1999.90
2022-10-04T08:31:11.840Z,1999.90
2022-10-04T08:32:11.800Z,1999.90
2022-10-04T08:33:11.758Z,1999.90
2022-10-04T08:34:11.722Z,1999.90
2022-10-04T08:35:11.702Z,1999.90
2022-10-04T08:36:11.708Z,1999.90
2022-10-04T08:37:11.735Z,1999.90
2022-10-04T08:38:11.688Z,1999.90
2022-10-04T08:39:11.665Z,1999.90
2022-10-04T08:40:13.205Z,1999.90
2022-10-04T08:41:11.645Z,1999.90
2022-10-04T08:42:11.687Z,1999.90
2022-10-04T08:43:11.623Z,1999.90
2022-10-04T08:44:11.601Z,1999.90
2022-10-04T08:45:11.626Z,1999.90
2022-10-04T08:46:11.621Z,1999.90
2022-10-04T08:47:11.609Z,1999.90
2022-10-04T08:48:11.562Z,1999.90
2022-10-04T08:49:11.582Z,1999.90
2022-10-04T08:50:11.610Z,1999.90
2022-10-04T08:51:11.509Z,1999.90
2022-10-04T08:52:11.561Z,1999.90
2022-10-04T08:53:11.511Z,915.10
2022-10-04T08:54:11.506Z,1395.20
2022-10-04T08:55:11.480Z,1999.90
2022-10-04T08:56:11.480Z,1999.90
2022-10-04T08:57:15.899Z,1548.00
2022-10-04T08:58:12.446Z,1002.60
2022-10-04T08:59:11.446Z,1894.80
2022-10-04T09:00:11.430Z,992.20
2022-10-04T09:01:11.450Z,262.90
2022-10-04T09:02:11.450Z,1468.10
2022-10-04T09:03:11.406Z,142.50
2022-10-04T09:04:11.386Z,671.40
2022-10-04T09:05:11.383Z,1999.90
2022-10-04T09:06:11.361Z,1999.90
2022-10-04T09:07:11.405Z,1999.90
2022-10-04T09:08:11.380Z,1999.90
2022-10-04T09:09:11.339Z,1999.90
2022-10-04T09:10:11.330Z,1999.90
2022-10-04T09:11:11.344Z,1999.90
2022-10-04T09:12:11.334Z,1999.90
2022-10-04T09:13:11.281Z,1999.90
2022-10-04T09:14:11.261Z,1999.90
2022-10-04T09:15:11.271Z,1999.90
2022-10-04T09:16:11.326Z,1999.90
2022-10-04T09:17:11.295Z,1999.90
2022-10-04T09:18:11.221Z,1999.90
2022-10-04T09:19:11.221Z,1999.90
2022-10-04T09:20:36.802Z,1999.90
2022-10-04T09:21:12.186Z,1999.90
2022-10-04T09:22:11.230Z,1999.90
2022-10-04T09:23:11.162Z,1999.90
2022-10-04T09:24:11.165Z,1999.90
2022-10-04T09:25:11.141Z,1999.90
2022-10-04T09:26:11.146Z,1999.90
2022-10-04T09:27:11.187Z,1999.90
2022-10-04T09:28:11.200Z,1999.90
2022-10-04T09:29:11.102Z,1999.90
2022-10-04T09:30:11.091Z,832.60
2022-10-04T09:31:11.137Z,1029.90
2022-10-04T09:32:11.132Z,29.00
2022-10-04T09:33:11.073Z,43.70
2022-10-04T09:34:11.049Z,47.20
2022-10-04T09:35:11.042Z,36.30
2022-10-04T09:36:11.025Z,579.30
2022-10-04T09:37:11.089Z,1493.90
2022-10-04T09:38:11.008Z,1411.40
2022-10-04T09:39:29.333Z,1999.90
2022-10-04T09:40:11.996Z,1999.90
2022-10-04T09:41:10.964Z,1999.90
2022-10-04T09:42:11.000Z,1354.60
2022-10-04T09:43:10.954Z,1279.40
2022-10-04T09:44:10.942Z,1193.80
2022-10-04T09:45:10.925Z,29.40
2022-10-04T09:46:10.956Z,890.00
2022-10-04T09:47:10.973Z,131.20
2022-10-04T09:48:10.876Z,159.00
2022-10-04T09:49:10.869Z,47.70
2022-10-04T09:50:10.850Z,64.90
2022-10-04T09:51:10.873Z,986.20
2022-10-04T09:52:10.896Z,366.80
2022-10-04T09:53:10.840Z,1079.90
2022-10-04T09:54:10.861Z,905.60
2022-10-04T09:55:10.832Z,1263.00
2022-10-04T09:56:10.812Z,1579.80
2022-10-04T09:57:10.832Z,1180.40
2022-10-04T09:58:10.786Z,1043.50
2022-10-04T09:59:10.778Z,1999.90
2022-10-04T10:00:10.806Z,1999.90
2022-10-04T10:01:10.742Z,1999.90
2022-10-04T10:02:10.824Z,752.70
2022-10-04T10:03:15.404Z,1999.90
2022-10-04T10:04:11.703Z,1999.90
2022-10-04T10:05:10.726Z,463.80
2022-10-04T10:06:10.689Z,1126.80
2022-10-04T10:07:10.730Z,280.40
2022-10-04T10:08:10.674Z,19.20
2022-10-04T10:09:10.673Z,135.30
2022-10-04T10:10:10.647Z,24.20
2022-10-04T10:11:10.646Z,1096.90
2022-10-04T10:12:10.655Z,422.40
2022-10-04T10:13:10.614Z,29.70
2022-10-04T10:14:10.602Z,72.20
2022-10-04T10:15:10.574Z,20.40
2022-10-04T10:16:10.595Z,26.60
2022-10-04T10:17:10.601Z,163.60
2022-10-04T10:18:10.531Z,492.20
2022-10-04T10:19:10.532Z,748.70
2022-10-04T10:20:10.545Z,61.50
2022-10-04T10:21:10.525Z,1134.50
2022-10-04T10:22:10.551Z,221.90
2022-10-04T10:23:10.491Z,28.70
2022-10-04T10:24:10.486Z,141.20
2022-10-04T10:25:10.477Z,528.00
2022-10-04T10:26:10.461Z,14.50
2022-10-04T10:27:10.494Z,11.20
2022-10-04T10:28:10.486Z,11.40
2022-10-04T10:29:10.447Z,11.20
2022-10-04T10:30:10.412Z,9.80
2022-10-04T10:31:10.448Z,8.10
2022-10-04T10:32:10.442Z,8.60
2022-10-04T10:33:10.399Z,9.80
2022-10-04T10:34:10.397Z,8.60
2022-10-04T10:35:10.376Z,8.90
2022-10-04T10:36:10.367Z,7.90
2022-10-04T10:37:10.394Z,8.00
2022-10-04T10:38:10.335Z,8.00
2022-10-04T10:39:10.353Z,7.20
2022-10-04T10:40:10.305Z,7.40
2022-10-04T10:41:10.303Z,7.40
2022-10-04T10:42:10.371Z,9.80
2022-10-04T10:43:10.287Z,8.20
2022-10-04T10:44:10.272Z,8.70
2022-10-04T10:45:10.244Z,8.50
2022-10-04T10:46:10.276Z,7.70
2022-10-04T10:47:10.258Z,7.70
2022-10-04T10:48:10.213Z,6.60
2022-10-04T10:49:10.216Z,7.10
2022-10-04T10:50:10.211Z,7.00
2022-10-04T10:51:10.204Z,6.40
2022-10-04T10:52:10.233Z,7.00
2022-10-04T10:53:10.177Z,8.20
2022-10-04T10:54:10.164Z,7.10
2022-10-04T10:55:10.148Z,7.70
2022-10-04T10:56:10.156Z,8.00
2022-10-04T10:57:10.172Z,7.00
2022-10-04T10:58:10.099Z,7.00
2022-10-04T10:59:10.097Z,6.30
2022-10-04T11:00:10.166Z,6.10
2022-10-04T11:01:10.071Z,6.20
2022-10-04T11:02:10.297Z,6.10
2022-10-04T11:03:13.764Z,6.60
2022-10-04T11:04:10.067Z,6.60
2022-10-04T11:05:10.049Z,7.90
2022-10-04T11:06:10.013Z,7.10
2022-10-04T11:07:10.049Z,7.70
2022-10-04T11:08:10.004Z,7.60
2022-10-04T11:09:10.005Z,7.10
2022-10-04T11:10:09.992Z,6.30
2022-10-04T11:11:09.969Z,6.50
2022-10-04T11:12:09.996Z,7.20
2022-10-04T11:13:09.939Z,7.10
2022-10-04T11:14:09.944Z,7.40
2022-10-04T11:15:09.905Z,7.80
2022-10-04T11:16:09.910Z,7.00
2022-10-04T11:17:09.952Z,6.30
2022-10-04T11:18:09.903Z,6.20
2022-10-04T11:19:09.888Z,6.40
2022-10-04T11:20:09.921Z,6.40
2022-10-04T11:21:09.855Z,6.80
2022-10-04T11:22:09.894Z,7.30
2022-10-04T11:23:09.843Z,7.20
2022-10-04T11:24:09.844Z,7.50
2022-10-04T11:25:09.834Z,7.00
2022-10-04T11:26:09.802Z,6.90
2022-10-04T11:27:09.839Z,6.60
2022-10-04T11:28:09.839Z,6.50
2022-10-04T11:29:09.752Z,6.20
2022-10-04T11:30:09.832Z,6.10
2022-10-04T11:31:09.780Z,6.60
2022-10-04T11:32:09.774Z,6.60
2022-10-04T11:33:09.723Z,6.60
2022-10-04T11:34:13.198Z,6.50
2022-10-04T11:35:10.695Z,6.40
2022-10-04T11:36:09.696Z,6.40
2022-10-04T11:37:09.727Z,6.90
2022-10-04T11:38:09.677Z,7.00
2022-10-04T11:39:09.655Z,7.00
2022-10-04T11:40:09.687Z,6.80
2022-10-04T11:41:09.647Z,6.20
2022-10-04T11:42:09.676Z,6.30
2022-10-04T11:43:09.626Z,6.40
2022-10-04T11:44:09.606Z,6.50
2022-10-04T11:45:09.587Z,6.20
2022-10-04T11:46:11.082Z,7.10
2022-10-04T11:47:09.650Z,6.80
2022-10-04T11:48:09.571Z,6.70
2022-10-04T11:49:09.551Z,6.90
2022-10-04T11:50:09.588Z,7.50
2022-10-04T11:51:09.526Z,8.10
2022-10-04T11:52:09.565Z,7.70
2022-10-04T11:53:09.510Z,9.30
2022-10-04T11:54:09.529Z,10.00
2022-10-04T11:55:09.481Z,9.80
2022-10-04T11:56:09.486Z,10.10
2022-10-04T11:57:09.507Z,10.50
2022-10-04T11:58:12.005Z,10.30
2022-10-04T11:59:09.432Z,16.70
2022-10-04T12:00:09.434Z,10.80
2022-10-04T12:01:09.425Z,10.60
2022-10-04T12:02:09.469Z,11.60
2022-10-04T12:03:09.467Z,10.80
2022-10-04T12:04:09.488Z,9.70
2022-10-04T12:05:09.394Z,9.10
2022-10-04T12:06:09.366Z,14.20
2022-10-04T12:07:09.401Z,14.00
2022-10-04T12:08:09.337Z,9.50
2022-10-04T12:09:09.337Z,12.20
2022-10-04T12:10:09.364Z,11.20
2022-10-04T12:11:09.297Z,13.60
2022-10-04T12:12:09.369Z,14.10
2022-10-04T12:13:09.279Z,16.00
2022-10-04T12:14:09.300Z,15.50
2022-10-04T12:15:09.272Z,14.00
2022-10-04T12:16:09.278Z,14.60
2022-10-04T12:17:09.313Z,15.30
2022-10-04T12:18:09.247Z,15.60
2022-10-04T12:19:09.250Z,15.30
2022-10-04T12:20:12.157Z,15.10
2022-10-04T12:21:09.199Z,17.10
2022-10-04T12:22:09.248Z,15.00
2022-10-04T12:23:09.193Z,16.80
2022-10-04T12:24:09.187Z,15.50
2022-10-04T12:25:09.180Z,10.80
2022-10-04T12:26:09.164Z,16.20
2022-10-04T12:27:09.215Z,11.30
2022-10-04T12:28:09.143Z,10.20
2022-10-04T12:29:09.106Z,15.70
2022-10-04T12:30:09.111Z,15.80
2022-10-04T12:31:09.110Z,16.70
2022-10-04T12:32:09.118Z,16.40
2022-10-04T12:33:09.043Z,14.40